This is the latest recevied weather packets stored in our database for station/object K5KHP. If no packets are shown the sender has not sent any weather packets the latest 10 day(s).
| Time | Temp. | Humidity | Pressure | Rain* | Wind** | Luminosity | Snow |
|---|---|---|---|---|---|---|---|
| 1778010152 | 18.89° C | 61% | 1014.1 hPa | 0 mm | - | 480 W/m² | - |
| 1778009848 | 18.33° C | 62% | 1014.3 hPa | 0 mm | - | 421 W/m² | - |
| 1778009546 | 19.44° C | 59% | 1014.2 hPa | 0 mm | - | 237 W/m² | - |
| 1778009244 | 19.44° C | 61% | 1014.1 hPa | 0 mm | - | 334 W/m² | - |
| 1778008942 | 20° C | 60% | 1014.3 hPa | 0 mm | - | 528 W/m² | - |
| 1778008640 | 19.44° C | 61% | 1014.3 hPa | 0 mm | - | 794 W/m² | - |
| 1778008338 | 19.44° C | 61% | 1014.4 hPa | 0 mm | - | 790 W/m² | - |
| 1778008034 | 18.89° C | 64% | 1014.3 hPa | 0 mm | - | 754 W/m² | - |
| 1778007733 | 18.89° C | 62% | 1014.4 hPa | 0 mm | - | 675 W/m² | - |
| 1778007430 | 18.89° C | 65% | 1014.2 hPa | 0 mm | - | 612 W/m² | - |
| 1778007127 | 18.89° C | 64% | 1014 hPa | 0 mm | - | 673 W/m² | - |
| 1778006823 | 19.44° C | 61% | 1013.9 hPa | 0 mm | - | 754 W/m² | - |
| 1778006520 | 19.44° C | 59% | 1013.9 hPa | 0 mm | - | 736 W/m² | - |
| 1778006217 | 19.44° C | 59% | 1013.9 hPa | 0 mm | - | 741 W/m² | - |
| 1778005915 | 19.44° C | 59% | 1014 hPa | 0 mm | - | 701 W/m² | - |
| 1778005610 | 18.89° C | 60% | 1014 hPa | 0 mm | - | 452 W/m² | - |
| 1778005308 | 19.44° C | 60% | 1013.9 hPa | 0 mm | - | 677 W/m² | - |
| 1778005004 | 19.44° C | 61% | 1013.9 hPa | 0 mm | - | 670 W/m² | - |
| 1778004702 | 18.89° C | 61% | 1013.9 hPa | 0 mm | - | 698 W/m² | - |
| 1778004398 | 19.44° C | 62% | 1014.1 hPa | 0 mm | - | 644 W/m² | - |
| 1778004095 | 18.89° C | 63% | 1014 hPa | 0 mm | - | 689 W/m² | - |
| 1778003791 | 18.89° C | 64% | 1013.8 hPa | 0 mm | - | 673 W/m² | - |
| 1778003488 | 18.89° C | 64% | 1013.8 hPa | 0 mm | - | 586 W/m² | - |
| 1778003184 | 18.33° C | 64% | 1014 hPa | 0 mm | - | 117 W/m² | - |
| 1778002880 | 18.89° C | 63% | 1014 hPa | 0 mm | - | 673 W/m² | - |
* Rain latest hour (hover to see other rain measurements)
** Current wind speed in m/s (hover to see current wind gust speed)